(°C)
10°
12°
13°
15°
(°C)
11°
13°
Β
Β
Β
ΒΒΔ
Β
Β
ΒΒΑ
(χλμ / ω)
4-4
2-5
2-8
5-8
7-8
7-9
7-9
(χιλιοστά)
0
0
0
0
0
0
0
(%)
0
0
0
0
0
0
0

Sun elevation

/
sun-icon
UV 4
06:12
20:29
Πρώτο τέταρτο (93°)
11:27
03:54

METAR for Bordenau (ETNW)

Χρόνος Conditions Θερμοκρασία/
Σημείο δρόσου
Άνεμος Ορατότητα Καιρός Νέφη Πίεση Change Raw
MVFR 4°C / 4°C variable 0kt 8000m in the Vicinity Fog shallow Fog Few Clouds 9000ft 1017 Temporary: Recent . ETNW 200500Z 00000KT 8000 VCFG MIFG FEW090 04/04 Q1017 BLU+BLU+ TEMPO RED
LIFR 3°C / 3°C 360º 1kt 800m patches Fog Few Clouds 9000ft 1017 Temporary: Recent . ETNW 200440Z 36001KT 0800 BCFG FEW090 03/03 Q1017 AMB BLU+ TEMPO RED
LIFR 3°C / 3°C variable 0kt 310m Fog Few Clouds 9000ft 1017 Temporary: Recent . ETNW 200420Z 00000KT 0300 FG FEW090 03/03 Q1017 RED BLU+ TEMPO RED
4°C / 4°C 350º 1kt 900m - 1017 - ETNW 200320Z AUTO 35001KT 0900 // ////// 04/04 Q1017 ///
4°C / 4°C 310º 3kt 1100m - 1017 - ETNW 200220Z AUTO 31003KT 1100 // ////// 04/04 Q1017 ///
5°C / 5°C 300º 3kt 4200m - 1018 - ETNW 200120Z AUTO 30003KT 4200 // ////// 05/05 Q1018 ///
6°C / 6°C 310º 3kt 3400m - 1018 - ETNW 200020Z AUTO 31003KT 3400 // ////// 06/06 Q1018 ///
7°C / 7°C 290º 3kt 5000m - 1018 - ETNW 192320Z AUTO 29003KT 5000 // ////// 07/07 Q1018 ///
7°C / 7°C 270º 3kt 6000m - 1018 - ETNW 192220Z AUTO 27003KT 6000 // ////// 07/07 Q1018 ///
8°C / 7°C 230º 2kt 6000m - 1019 - ETNW 192120Z AUTO 23002KT 6000 // ////// 08/07 Q1019 ///
9°C / 8°C 260º 2kt 6000m - 1019 - ETNW 192020Z AUTO 26002KT 6000 // ////// 09/08 Q1019 ///
10°C / 7°C 290º 2kt 7000m - 1019 - ETNW 191920Z AUTO 29002KT 7000 // ////// 10/07 Q1019 ///
11°C / 7°C 320º 2kt 7000m - 1019 - ETNW 191820Z AUTO 32002KT 7000 // ////// 11/07 Q1019 ///
13°C / 7°C 300º 2kt 8000m - 1019 - ETNW 191720Z AUTO 30002KT 8000 // ////// 13/07 Q1019 ///
13°C / 7°C 60º 1kt 7000m - 1019 - ETNW 191620Z AUTO 06001KT 7000 // ////// 13/07 Q1019 ///
14°C / 7°C 320º 1kt 8000m - 1020 - ETNW 191520Z AUTO 32001KT 8000 // ////// 14/07 Q1020 ///
VFR 13°C / 6°C 70º 6kt >10km - Few Clouds 2000ft 1020 - ETNW 191420Z 07006KT 9999 FEW020 SCT050 BKN070 13/06 Q1020 BLU BLU
VFR 13°C / 7°C 70º 6kt >10km - Few Clouds 2000ft 1020 - ETNW 191320Z 07006KT 9999 FEW020 BKN070 13/07 Q1020 BLU BLU
VFR 12°C / 7°C 110º 5kt >10km - Scattered Clouds 800ft 1021 - ETNW 191220Z 11005KT 9999 SCT008 BKN110 12/07 Q1021 BLU BLU
IFR 10°C / 7°C 80º 4kt >10km - Broken Clouds 800ft 1021 Becoming: blowing . ETNW 191120Z 08004KT 9999 BKN008 BKN012 10/07 Q1021 GRN GRN BECMG BLU
IFR 9°C / 7°C 50º 6kt >10km - Broken Clouds 800ft 1021 Becoming: blowing . ETNW 191020Z 05006KT 9999 BKN008 09/07 Q1021 GRN GRN BECMG BLU
IFR 9°C / 7°C 70º 7kt >10km - Broken Clouds 700ft 1021 Temporary: YLO ETNW 190945Z 07007KT 9999 BKN007 09/07 Q1021 GRN GRN TEMPO YLO
IFR 8°C / 7°C 60º 6kt >10km - Broken Clouds 600ft 1021 Temporary: YLO ETNW 190920Z 06006KT 9999 BKN006 08/07 Q1021 YLO GRN TEMPO YLO
IFR 8°C / 7°C 80º 6kt >10km - Broken Clouds 800ft 1021 Becoming: WHT ETNW 190820Z 08006KT 9999 BKN008 08/07 Q1021 GRN GRN BECMG WHT

MVFR

4°C / 4°C

[Περισσότερο]
Άνεμος variable 0kt
Ορατότητα 8000m
Καιρός in the Vicinity Fog shallow Fog
Νέφη Few Clouds 9000ft
Πίεση 1017
Change Temporary: Recent .
Raw ETNW 200500Z 00000KT 8000 VCFG MIFG FEW090 04/04 Q1017 BLU+BLU+ TEMPO RED

LIFR

3°C / 3°C

[Περισσότερο]
Άνεμος 360º 1kt
Ορατότητα 800m
Καιρός patches Fog
Νέφη Few Clouds 9000ft
Πίεση 1017
Change Temporary: Recent .
Raw ETNW 200440Z 36001KT 0800 BCFG FEW090 03/03 Q1017 AMB BLU+ TEMPO RED

LIFR

3°C / 3°C

[Περισσότερο]
Άνεμος variable 0kt
Ορατότητα 310m
Καιρός Fog
Νέφη Few Clouds 9000ft
Πίεση 1017
Change Temporary: Recent .
Raw ETNW 200420Z 00000KT 0300 FG FEW090 03/03 Q1017 RED BLU+ TEMPO RED

4°C / 4°C

[Περισσότερο]
Άνεμος 350º 1kt
Ορατότητα 900m
Καιρός -
Νέφη
Πίεση 1017
Change -
Raw ETNW 200320Z AUTO 35001KT 0900 // ////// 04/04 Q1017 ///

4°C / 4°C

[Περισσότερο]
Άνεμος 310º 3kt
Ορατότητα 1100m
Καιρός -
Νέφη
Πίεση 1017
Change -
Raw ETNW 200220Z AUTO 31003KT 1100 // ////// 04/04 Q1017 ///

5°C / 5°C

[Περισσότερο]
Άνεμος 300º 3kt
Ορατότητα 4200m
Καιρός -
Νέφη
Πίεση 1018
Change -
Raw ETNW 200120Z AUTO 30003KT 4200 // ////// 05/05 Q1018 ///

6°C / 6°C

[Περισσότερο]
Άνεμος 310º 3kt
Ορατότητα 3400m
Καιρός -
Νέφη
Πίεση 1018
Change -
Raw ETNW 200020Z AUTO 31003KT 3400 // ////// 06/06 Q1018 ///

7°C / 7°C

[Περισσότερο]
Άνεμος 290º 3kt
Ορατότητα 5000m
Καιρός -
Νέφη
Πίεση 1018
Change -
Raw ETNW 192320Z AUTO 29003KT 5000 // ////// 07/07 Q1018 ///

7°C / 7°C

[Περισσότερο]
Άνεμος 270º 3kt
Ορατότητα 6000m
Καιρός -
Νέφη
Πίεση 1018
Change -
Raw ETNW 192220Z AUTO 27003KT 6000 // ////// 07/07 Q1018 ///

8°C / 7°C

[Περισσότερο]
Άνεμος 230º 2kt
Ορατότητα 6000m
Καιρός -
Νέφη
Πίεση 1019
Change -
Raw ETNW 192120Z AUTO 23002KT 6000 // ////// 08/07 Q1019 ///

9°C / 8°C

[Περισσότερο]
Άνεμος 260º 2kt
Ορατότητα 6000m
Καιρός -
Νέφη
Πίεση 1019
Change -
Raw ETNW 192020Z AUTO 26002KT 6000 // ////// 09/08 Q1019 ///

10°C / 7°C

[Περισσότερο]
Άνεμος 290º 2kt
Ορατότητα 7000m
Καιρός -
Νέφη
Πίεση 1019
Change -
Raw ETNW 191920Z AUTO 29002KT 7000 // ////// 10/07 Q1019 ///

11°C / 7°C

[Περισσότερο]
Άνεμος 320º 2kt
Ορατότητα 7000m
Καιρός -
Νέφη
Πίεση 1019
Change -
Raw ETNW 191820Z AUTO 32002KT 7000 // ////// 11/07 Q1019 ///

13°C / 7°C

[Περισσότερο]
Άνεμος 300º 2kt
Ορατότητα 8000m
Καιρός -
Νέφη
Πίεση 1019
Change -
Raw ETNW 191720Z AUTO 30002KT 8000 // ////// 13/07 Q1019 ///

13°C / 7°C

[Περισσότερο]
Άνεμος 60º 1kt
Ορατότητα 7000m
Καιρός -
Νέφη
Πίεση 1019
Change -
Raw ETNW 191620Z AUTO 06001KT 7000 // ////// 13/07 Q1019 ///

14°C / 7°C

[Περισσότερο]
Άνεμος 320º 1kt
Ορατότητα 8000m
Καιρός -
Νέφη
Πίεση 1020
Change -
Raw ETNW 191520Z AUTO 32001KT 8000 // ////// 14/07 Q1020 ///

VFR

13°C / 6°C

[Περισσότερο]
Άνεμος 70º 6kt
Ορατότητα >10km
Καιρός -
Νέφη Few Clouds 2000ft
Πίεση 1020
Change -
Raw ETNW 191420Z 07006KT 9999 FEW020 SCT050 BKN070 13/06 Q1020 BLU BLU

VFR

13°C / 7°C

[Περισσότερο]
Άνεμος 70º 6kt
Ορατότητα >10km
Καιρός -
Νέφη Few Clouds 2000ft
Πίεση 1020
Change -
Raw ETNW 191320Z 07006KT 9999 FEW020 BKN070 13/07 Q1020 BLU BLU

VFR

12°C / 7°C

[Περισσότερο]
Άνεμος 110º 5kt
Ορατότητα >10km
Καιρός -
Νέφη Scattered Clouds 800ft
Πίεση 1021
Change -
Raw ETNW 191220Z 11005KT 9999 SCT008 BKN110 12/07 Q1021 BLU BLU

IFR

10°C / 7°C

[Περισσότερο]
Άνεμος 80º 4kt
Ορατότητα >10km
Καιρός -
Νέφη Broken Clouds 800ft
Πίεση 1021
Change Becoming: blowing .
Raw ETNW 191120Z 08004KT 9999 BKN008 BKN012 10/07 Q1021 GRN GRN BECMG BLU

IFR

9°C / 7°C

[Περισσότερο]
Άνεμος 50º 6kt
Ορατότητα >10km
Καιρός -
Νέφη Broken Clouds 800ft
Πίεση 1021
Change Becoming: blowing .
Raw ETNW 191020Z 05006KT 9999 BKN008 09/07 Q1021 GRN GRN BECMG BLU

IFR

9°C / 7°C

[Περισσότερο]
Άνεμος 70º 7kt
Ορατότητα >10km
Καιρός -
Νέφη Broken Clouds 700ft
Πίεση 1021
Change Temporary: YLO
Raw ETNW 190945Z 07007KT 9999 BKN007 09/07 Q1021 GRN GRN TEMPO YLO

IFR

8°C / 7°C

[Περισσότερο]
Άνεμος 60º 6kt
Ορατότητα >10km
Καιρός -
Νέφη Broken Clouds 600ft
Πίεση 1021
Change Temporary: YLO
Raw ETNW 190920Z 06006KT 9999 BKN006 08/07 Q1021 YLO GRN TEMPO YLO

IFR

8°C / 7°C

[Περισσότερο]
Άνεμος 80º 6kt
Ορατότητα >10km
Καιρός -
Νέφη Broken Clouds 800ft
Πίεση 1021
Change Becoming: WHT
Raw ETNW 190820Z 08006KT 9999 BKN008 08/07 Q1021 GRN GRN BECMG WHT

TAF for Bordenau (ETNW)

From till


From till Wind 310º 5kt. Visibility 10km or more. Scattered Clouds 10000ft.
Temporarly from till Wind variable 3kt. Visibility 498.895m. Fog . Scattered Clouds 10000ft.
Temporarly from till Wind variable 3kt. Visibility 5000m. Mist . Scattered Clouds 6000ft.

Raw: TAF ETNW 200420Z 2005/2105 31005KT 9999 NSW SCT100 TEMPO 2005/2008 VRB03KT 0500 FG SCT100 TEMPO 2102/2105 VRB03KT 5000 BR SCT060 BY ETGL

Current satellite and rain images for Bordenau, Γερμανία

  • Υετός:
  • <1 χιλιοστά
  • 1-2 χιλιοστά
  • 2-5 χιλιοστά
  • >5 χιλιοστά

Η ένδειξη τοποθεσίας τοποθετείται στο Bordenau. [Περισσότερο]

The real-time satellite image combines visible light during daytime with infrared radiation during nighttime. At night, the image is not dark as infrared radiation can detect temperature differences. Unfortunately, low clouds and fog are difficult to distinguish from ground temperatures and thus can be almost invisible during the night. Meteosat satellite images for Europe are updated in real-time every 5 minutes. GOES-16/GOES-17 (North & South America) and Himawari (Asia) images update every 10 minutes.

Ο υετός υπολογίζεται από ραντάρ και δορυφόρους. Η εκτιμήση του υετού από δορυφόρους τη νύχτα είναι λιγότερο ακριβής από ό,τι την ημέρα. Με πορτοκαλί σταυροούς οι θέσεις όπου αστραπές εντοπίζονται (για Ευρώπη).

Πνευματική ιδιοκτησία 2021 EUMETSAT / meteoblue. Δεδομένα αστραπών παρεχόμενα από nowcast.

Ραντάρ για Bordenau

Ο δείκτης θέσης τοποθετείται στο Bordenau. Αυτή η κινούμενη εικόνα δείχνει την ραντάρ βροχόπτωσης για την τελευταία ώρα, καθώς και 2πρόγνωση h. Ψεκάδες (ψιλόβροχο) ή ελαφρά χιονόπτωση, μπορεί να είναι αόρατα στο ραντάρ. Η ένταση βροχόπτωσης κωδικοποιείται με χρώματα που κυμαίνονται από γαλάζιο έως σκούρο μοβ.
Copyright 2021 Deutscher Wetterdienst / meteoblue.

Τρέχουσα κατάσταση καιρού και προειδοποιήσεις

EUMETNET – MeteoAlarm

pictomap

Πηγή: DWD

Μπορεί να υπάρχουν χρονικές καθυστερήσεις μεταξύ αυτής της ιστοσελίδας και του www.meteoalarm.eu Για πιο ενημερωμένες πληροφορίες σχετικά με τα επίπεδα συναγερμού, όπως δημοσιεύονται από τις συμμετέχουσες Εθνικές Μετεωρολογικές Υπηρεσίες, παρακαλούμε χρησιμοποιήστε το www.meteoalarm.eu.